createdAt,value
2022-09-28T00:02:30.786Z,7.27
2022-09-28T00:05:33.927Z,5.80
2022-09-28T00:08:37.824Z,7.43
2022-09-28T00:11:41.029Z,6.60
2022-09-28T00:14:45.863Z,5.40
2022-09-28T00:17:48.966Z,7.30
2022-09-28T00:21:02.513Z,6.87
2022-09-28T00:24:15.478Z,7.03
2022-09-28T00:27:18.374Z,6.57
2022-09-28T00:30:22.684Z,6.60
2022-09-28T00:33:25.968Z,6.43
2022-09-28T00:36:30.575Z,6.03
2022-09-28T00:39:35.611Z,5.47
2022-09-28T00:42:38.532Z,5.53
2022-09-28T00:45:42.906Z,7.43
2022-09-28T00:48:53.005Z,5.90
2022-09-28T00:51:56.048Z,7.27
2022-09-28T00:55:01.216Z,5.60
2022-09-28T00:58:08.325Z,6.27
2022-09-28T01:01:13.302Z,5.50
2022-09-28T01:04:16.628Z,5.90
2022-09-28T01:07:20.452Z,6.17
2022-09-28T01:10:24.167Z,6.20
2022-09-28T01:13:28.197Z,6.57
2022-09-28T01:16:42.687Z,5.90
2022-09-28T01:20:35.539Z,5.73
2022-09-28T01:24:10.916Z,6.03
2022-09-28T01:27:22.177Z,5.97
2022-09-28T01:30:25.541Z,5.57
2022-09-28T01:33:35.763Z,5.87
2022-09-28T01:36:45.249Z,5.17
2022-09-28T01:39:51.510Z,7.17
2022-09-28T01:43:03.800Z,5.40
2022-09-28T01:46:13.461Z,4.70
2022-09-28T01:49:21.158Z,5.67
2022-09-28T01:52:30.464Z,5.70
2022-09-28T01:55:36.171Z,6.47
2022-09-28T01:58:50.459Z,6.53
2022-09-28T02:01:58.590Z,6.73
2022-09-28T02:05:06.510Z,5.37
2022-09-28T02:08:13.720Z,6.07
2022-09-28T02:11:18.716Z,5.60
2022-09-28T02:14:25.838Z,5.73
2022-09-28T02:17:28.782Z,6.83
2022-09-28T02:20:35.498Z,10.20
2022-09-28T02:23:42.742Z,5.93
2022-09-28T02:26:49.185Z,6.33
2022-09-28T02:29:53.509Z,6.67
2022-09-28T02:33:02.292Z,7.30
2022-09-28T02:36:06.147Z,8.37
2022-09-28T02:39:16.035Z,7.43
2022-09-28T02:42:25.801Z,7.30
2022-09-28T02:45:49.162Z,7.43
2022-09-28T02:49:21.854Z,8.00
2022-09-28T02:52:46.249Z,8.20
2022-09-28T02:56:06.349Z,9.17
2022-09-28T02:59:21.483Z,7.97
2022-09-28T03:02:36.012Z,7.97
2022-09-28T03:05:48.523Z,8.33
2022-09-28T03:09:00.959Z,8.37
2022-09-28T03:12:10.451Z,8.27
2022-09-28T03:15:21.913Z,9.13
2022-09-28T03:18:26.208Z,10.33
2022-09-28T03:21:29.567Z,9.27
2022-09-28T03:24:32.926Z,8.90
2022-09-28T03:27:35.866Z,9.27
2022-09-28T03:30:43.017Z,9.03
2022-09-28T03:33:47.706Z,10.03
2022-09-28T03:36:50.750Z,9.07
2022-09-28T03:39:54.081Z,10.03
2022-09-28T03:42:57.010Z,9.97
2022-09-28T03:46:02.600Z,8.97
2022-09-28T03:49:11.571Z,9.13
2022-09-28T03:52:15.368Z,8.93
2022-09-28T03:55:18.871Z,8.60
2022-09-28T03:58:23.051Z,8.20
2022-09-28T04:01:26.092Z,8.37
2022-09-28T04:04:30.649Z,7.93
2022-09-28T04:07:33.953Z,8.13
2022-09-28T04:10:36.869Z,9.70
2022-09-28T04:13:40.160Z,9.53
2022-09-28T04:16:48.222Z,9.80
2022-09-28T04:19:53.472Z,12.83
2022-09-28T04:23:07.378Z,10.90
2022-09-28T04:26:18.691Z,10.27
2022-09-28T04:29:20.992Z,14.20
2022-09-28T04:32:33.832Z,8.73
2022-09-28T04:35:38.486Z,10.60
2022-09-28T04:38:52.836Z,10.83
2022-09-28T04:41:57.314Z,8.73
2022-09-28T04:45:00.947Z,9.60
2022-09-28T04:48:08.351Z,9.37
2022-09-28T04:51:33.683Z,10.33
2022-09-28T04:54:36.739Z,8.40
2022-09-28T04:57:39.822Z,13.03
2022-09-28T05:00:43.106Z,10.43
2022-09-28T05:04:06.000Z,10.53
2022-09-28T05:07:31.191Z,12.33
2022-09-28T05:10:36.532Z,12.00
2022-09-28T05:13:43.703Z,11.53
2022-09-28T05:16:47.639Z,12.27
2022-09-28T05:20:03.847Z,13.17
2022-09-28T05:23:11.914Z,12.47
2022-09-28T05:26:15.839Z,10.90
2022-09-28T05:29:19.002Z,13.87
2022-09-28T05:32:22.401Z,32.43
2022-09-28T05:35:34.096Z,22.33
2022-09-28T05:38:39.451Z,19.43
2022-09-28T05:41:42.409Z,14.07
2022-09-28T05:44:48.363Z,16.77
2022-09-28T05:47:51.396Z,13.70
2022-09-28T05:50:58.596Z,13.17
2022-09-28T05:54:06.111Z,11.27
2022-09-28T05:57:11.042Z,14.07
2022-09-28T06:00:14.638Z,11.63
2022-09-28T06:03:21.775Z,10.53
2022-09-28T06:06:24.842Z,11.07
2022-09-28T06:09:29.155Z,21.87
2022-09-28T06:12:34.622Z,12.97
2022-09-28T06:15:44.797Z,11.87
2022-09-28T06:18:48.410Z,21.10
2022-09-28T06:22:24.260Z,17.53
2022-09-28T06:25:36.269Z,14.60
2022-09-28T06:28:39.347Z,10.03
2022-09-28T06:31:42.718Z,10.10
2022-09-28T06:34:45.941Z,10.90
2022-09-28T06:37:49.355Z,13.20
2022-09-28T06:40:53.997Z,11.60
2022-09-28T06:43:57.113Z,10.43
2022-09-28T06:47:18.542Z,10.53
2022-09-28T06:50:40.464Z,13.77
2022-09-28T06:54:01.535Z,12.20
2022-09-28T06:57:16.627Z,12.80
2022-09-28T07:00:20.263Z,10.60
2022-09-28T07:03:24.315Z,12.13
2022-09-28T07:06:55.949Z,11.17
2022-09-28T07:10:32.041Z,12.23
2022-09-28T07:13:50.444Z,11.90
2022-09-28T07:17:12.173Z,12.87
2022-09-28T07:20:19.408Z,15.03
2022-09-28T07:23:24.861Z,12.10
2022-09-28T07:26:46.272Z,11.90
2022-09-28T07:29:59.818Z,11.50
2022-09-28T07:33:17.853Z,11.83
2022-09-28T07:36:31.952Z,11.83
2022-09-28T07:39:55.140Z,12.07
2022-09-28T07:43:05.538Z,16.47
2022-09-28T07:46:11.805Z,12.30
2022-09-28T07:49:19.291Z,11.13
2022-09-28T07:52:43.129Z,13.73
2022-09-28T07:56:05.684Z,13.27
2022-09-28T07:59:15.490Z,12.80
2022-09-28T08:02:39.447Z,11.40
2022-09-28T08:05:42.912Z,14.10
2022-09-28T08:08:46.546Z,15.03
2022-09-28T08:11:52.020Z,11.13
2022-09-28T08:15:17.183Z,11.20
2022-09-28T08:18:29.651Z,11.23
2022-09-28T08:21:46.730Z,13.97
2022-09-28T08:24:50.589Z,10.23
2022-09-28T08:27:53.794Z,13.53
2022-09-28T08:31:01.659Z,11.33
2022-09-28T08:34:09.015Z,14.53
2022-09-28T08:37:33.785Z,10.77
2022-09-28T08:41:09.747Z,10.83
2022-09-28T08:44:40.607Z,13.67
2022-09-28T08:48:10.511Z,9.67
2022-09-28T08:51:52.375Z,10.07
2022-09-28T08:55:09.663Z,11.63
2022-09-28T08:58:21.726Z,11.67
2022-09-28T09:01:45.024Z,10.67
2022-09-28T09:04:52.620Z,9.57
2022-09-28T09:08:16.990Z,10.53
2022-09-28T09:11:51.065Z,11.53
2022-09-28T09:15:19.311Z,13.77
2022-09-28T09:18:33.900Z,12.27
2022-09-28T09:21:43.847Z,14.20
2022-09-28T09:24:53.299Z,13.87
2022-09-28T09:28:28.225Z,10.97
2022-09-28T09:31:45.776Z,8.73
2022-09-28T09:35:17.723Z,7.43
2022-09-28T09:38:58.055Z,7.43
2022-09-28T09:42:26.751Z,8.40
2022-09-28T09:46:07.696Z,7.07
2022-09-28T09:49:29.596Z,5.47
2022-09-28T09:52:44.396Z,9.03
2022-09-28T09:55:54.734Z,3.57
2022-09-28T09:59:10.676Z,5.53
2022-09-28T10:02:34.019Z,3.93
2022-09-28T10:05:48.320Z,3.13
2022-09-28T10:08:59.741Z,4.67
2022-09-28T10:12:03.989Z,3.63
2022-09-28T10:15:14.985Z,3.40
2022-09-28T10:18:28.130Z,3.30
2022-09-28T10:21:51.727Z,3.93
2022-09-28T10:25:02.290Z,3.53
2022-09-28T10:28:07.139Z,4.40
2022-09-28T10:31:38.556Z,3.63
2022-09-28T10:34:50.250Z,3.90
2022-09-28T10:38:04.396Z,3.30
2022-09-28T10:41:17.143Z,3.35
2022-09-28T10:44:36.246Z,2.53
2022-09-28T10:47:56.036Z,2.73
2022-09-28T10:51:05.587Z,3.10
2022-09-28T10:54:16.790Z,2.85
2022-09-28T10:57:30.011Z,3.63
2022-09-28T11:00:42.959Z,3.85
2022-09-28T11:03:57.959Z,3.80
2022-09-28T11:07:02.961Z,3.05
2022-09-28T11:10:07.249Z,4.68
2022-09-28T11:13:11.315Z,3.50
2022-09-28T11:16:26.217Z,3.83
2022-09-28T11:19:31.748Z,3.67
2022-09-28T11:22:41.816Z,4.23
2022-09-28T11:26:02.252Z,6.77
2022-09-28T11:29:07.513Z,7.00
2022-09-28T11:32:40.920Z,5.63
2022-09-28T11:36:20.413Z,6.60
2022-09-28T11:39:33.563Z,6.67
2022-09-28T11:42:54.446Z,4.73
2022-09-28T11:46:04.816Z,4.33
2022-09-28T11:49:24.531Z,5.17
2022-09-28T11:52:35.163Z,4.83
2022-09-28T11:55:46.159Z,7.10
2022-09-28T11:58:53.321Z,4.40
2022-09-28T12:02:12.712Z,4.50
2022-09-28T12:05:27.812Z,4.17
2022-09-28T12:08:37.339Z,4.03
2022-09-28T12:11:44.775Z,6.07
2022-09-28T12:15:05.314Z,4.13
2022-09-28T12:18:14.758Z,5.67
2022-09-28T12:21:38.440Z,5.03
2022-09-28T12:24:47.528Z,3.30
2022-09-28T12:27:55.193Z,2.90
2022-09-28T12:31:03.506Z,3.03
2022-09-28T12:34:06.903Z,3.40
2022-09-28T12:37:28.066Z,2.30
2022-09-28T12:40:39.653Z,3.07
2022-09-28T12:44:06.615Z,2.80
2022-09-28T12:47:30.417Z,2.50
2022-09-28T12:50:45.562Z,2.50
2022-09-28T12:54:11.994Z,2.67
2022-09-28T12:57:37.215Z,3.00
2022-09-28T13:00:51.138Z,5.30
2022-09-28T13:04:45.524Z,2.60
2022-09-28T13:07:58.935Z,2.20
2022-09-28T13:11:10.533Z,4.43
2022-09-28T13:14:41.837Z,2.80
2022-09-28T13:18:02.589Z,3.00
2022-09-28T13:21:19.155Z,3.60
2022-09-28T13:24:32.867Z,3.40
2022-09-28T13:27:42.327Z,3.03
2022-09-28T13:30:47.742Z,4.10
2022-09-28T13:33:52.587Z,3.07
2022-09-28T13:37:24.362Z,3.13
2022-09-28T13:41:12.772Z,2.80
2022-09-28T13:44:54.348Z,3.90
2022-09-28T13:48:13.482Z,3.03
2022-09-28T13:51:45.075Z,2.53
2022-09-28T13:55:04.635Z,2.20
2022-09-28T13:58:22.406Z,2.27
2022-09-28T14:01:31.763Z,4.68
2022-09-28T14:04:56.671Z,4.57
2022-09-28T14:08:26.819Z,2.60
2022-09-28T14:11:47.373Z,2.90
2022-09-28T14:14:51.909Z,2.50
2022-09-28T14:18:05.340Z,2.97
2022-09-28T14:21:48.209Z,3.23
2022-09-28T14:25:08.296Z,3.75
2022-09-28T14:28:33.940Z,2.70
2022-09-28T14:31:43.428Z,3.35
2022-09-28T14:34:49.346Z,2.03
2022-09-28T14:38:18.330Z,2.17
2022-09-28T14:41:33.542Z,2.40
2022-09-28T14:45:35.937Z,4.15
2022-09-28T14:48:48.827Z,2.30
2022-09-28T14:52:03.931Z,2.13
2022-09-28T14:55:15.410Z,2.80
2022-09-28T14:58:23.385Z,2.50
2022-09-28T15:01:27.840Z,2.40
2022-09-28T15:04:32.492Z,2.80
2022-09-28T15:07:47.602Z,2.40
2022-09-28T15:10:52.533Z,3.08
2022-09-28T15:14:07.534Z,4.55
2022-09-28T15:17:14.886Z,3.28
2022-09-28T15:20:25.524Z,3.17
2022-09-28T15:23:36.356Z,2.58
2022-09-28T15:26:39.248Z,3.13
2022-09-28T15:29:42.326Z,2.92
2022-09-28T15:32:46.571Z,3.53
2022-09-28T15:35:56.360Z,3.77
2022-09-28T15:39:03.311Z,3.90
2022-09-28T15:42:07.470Z,5.10
2022-09-28T15:45:30.710Z,3.90
2022-09-28T15:48:41.582Z,4.60
2022-09-28T15:51:52.243Z,3.43
2022-09-28T15:54:56.307Z,2.93
2022-09-28T15:58:15.680Z,3.33
2022-09-28T16:01:28.464Z,3.67
2022-09-28T16:04:40.487Z,5.97
2022-09-28T16:07:56.209Z,5.73
2022-09-28T16:11:12.050Z,5.10
2022-09-28T16:14:20.980Z,3.00
2022-09-28T16:17:32.333Z,3.00
2022-09-28T16:20:38.635Z,3.60
2022-09-28T16:23:42.338Z,3.57
2022-09-28T16:26:45.454Z,4.00
2022-09-28T16:30:13.867Z,3.47
2022-09-28T16:33:30.385Z,4.80
2022-09-28T16:36:46.184Z,3.53
2022-09-28T16:39:49.130Z,4.40
2022-09-28T16:42:56.140Z,6.57
2022-09-28T16:46:02.004Z,4.40
2022-09-28T16:49:07.450Z,5.37
2022-09-28T16:52:13.416Z,5.80
2022-09-28T16:55:38.827Z,5.67
2022-09-28T16:58:39.028Z,5.10
2022-09-28T17:01:43.778Z,4.80
2022-09-28T17:04:49.578Z,5.20
2022-09-28T17:08:03.800Z,10.57
2022-09-28T17:11:15.837Z,7.30
2022-09-28T17:14:23.367Z,7.23
2022-09-28T17:17:29.782Z,5.47
2022-09-28T17:20:35.453Z,7.27
2022-09-28T17:23:39.849Z,6.87
2022-09-28T17:26:44.401Z,5.33
2022-09-28T17:30:16.585Z,6.80
2022-09-28T17:33:19.781Z,6.13
2022-09-28T17:36:27.318Z,6.37
2022-09-28T17:39:32.108Z,6.20
2022-09-28T17:42:37.575Z,7.33
2022-09-28T17:45:41.249Z,7.27
2022-09-28T17:48:46.658Z,7.93
2022-09-28T17:51:50.375Z,9.53
2022-09-28T17:54:54.652Z,7.20
2022-09-28T17:57:58.162Z,7.90
2022-09-28T18:01:01.100Z,7.93
2022-09-28T18:04:08.082Z,9.00
2022-09-28T18:07:11.337Z,7.87
2022-09-28T18:10:21.266Z,8.67
2022-09-28T18:13:26.504Z,8.33
2022-09-28T18:16:30.319Z,11.30
2022-09-28T18:19:33.695Z,8.13
2022-09-28T18:22:37.775Z,8.00
2022-09-28T18:25:43.490Z,8.27
2022-09-28T18:28:47.564Z,8.77
2022-09-28T18:31:50.790Z,9.37
2022-09-28T18:34:54.060Z,9.03
2022-09-28T18:37:57.203Z,9.50
2022-09-28T18:41:10.066Z,10.17
2022-09-28T18:44:13.420Z,9.57
2022-09-28T18:47:17.485Z,9.87
2022-09-28T18:50:20.716Z,9.63
2022-09-28T18:53:23.841Z,9.17
2022-09-28T18:56:28.270Z,10.33
2022-09-28T18:59:31.919Z,9.77
2022-09-28T19:02:35.338Z,9.13
2022-09-28T19:05:42.922Z,8.63
2022-09-28T19:08:55.430Z,9.77
2022-09-28T19:12:00.151Z,15.97
2022-09-28T19:15:03.321Z,9.23
2022-09-28T19:18:08.751Z,9.83
2022-09-28T19:21:14.251Z,8.70
2022-09-28T19:24:19.750Z,9.47
2022-09-28T19:27:24.009Z,9.27
2022-09-28T19:30:31.610Z,9.87
2022-09-28T19:33:34.554Z,9.43
2022-09-28T19:36:37.653Z,14.37
2022-09-28T19:39:40.582Z,12.23
2022-09-28T19:42:44.822Z,9.90
2022-09-28T19:45:51.987Z,10.47
2022-09-28T19:48:56.500Z,11.37
2022-09-28T19:52:15.687Z,15.53
2022-09-28T19:55:21.204Z,13.20
2022-09-28T19:58:30.587Z,8.77
2022-09-28T20:01:36.785Z,9.13
2022-09-28T20:04:39.761Z,8.43
2022-09-28T20:07:42.858Z,8.37
2022-09-28T20:10:52.262Z,8.13
2022-09-28T20:13:56.765Z,8.43
2022-09-28T20:16:59.679Z,10.20
2022-09-28T20:20:03.215Z,8.87
2022-09-28T20:23:06.402Z,8.20
2022-09-28T20:26:10.424Z,8.77
2022-09-28T20:29:14.843Z,9.87
2022-09-28T20:32:18.012Z,9.03
2022-09-28T20:35:32.379Z,10.27
2022-09-28T20:38:38.245Z,10.07
2022-09-28T20:41:41.280Z,10.60
2022-09-28T20:44:45.955Z,10.40
2022-09-28T20:47:48.891Z,12.50
2022-09-28T20:51:00.573Z,12.30
2022-09-28T20:54:03.602Z,12.00
2022-09-28T20:57:17.184Z,13.97
2022-09-28T21:00:21.462Z,11.87
2022-09-28T21:03:24.786Z,11.67
2022-09-28T21:06:30.065Z,13.77
2022-09-28T21:09:33.049Z,11.60
2022-09-28T21:12:36.879Z,10.63
2022-09-28T21:15:41.200Z,11.43
2022-09-28T21:18:44.412Z,11.33
2022-09-28T21:21:47.528Z,11.37
2022-09-28T21:24:50.453Z,11.27
2022-09-28T21:27:53.511Z,10.67
2022-09-28T21:30:58.083Z,10.50
2022-09-28T21:34:01.148Z,8.77
2022-09-28T21:37:04.105Z,8.63
2022-09-28T21:40:09.783Z,9.20
2022-09-28T21:43:13.453Z,8.93
2022-09-28T21:46:18.402Z,9.60
2022-09-28T21:49:21.433Z,8.70
2022-09-28T21:52:24.462Z,9.30
2022-09-28T21:55:27.473Z,11.10
2022-09-28T21:58:33.595Z,10.23
2022-09-28T22:01:38.054Z,8.97
2022-09-28T22:04:41.014Z,9.60
2022-09-28T22:07:44.588Z,7.93
2022-09-28T22:11:00.007Z,12.03
2022-09-28T22:14:02.958Z,10.73
2022-09-28T22:17:07.637Z,8.50
2022-09-28T22:20:11.039Z,9.73
2022-09-28T22:23:14.003Z,8.53
2022-09-28T22:26:20.092Z,9.77
2022-09-28T22:29:23.893Z,9.43
2022-09-28T22:32:28.463Z,9.63
2022-09-28T22:35:31.555Z,8.73
2022-09-28T22:38:37.498Z,9.00
2022-09-28T22:41:40.483Z,10.23
2022-09-28T22:44:43.415Z,9.00
2022-09-28T22:47:47.661Z,9.10
2022-09-28T22:50:51.289Z,10.07
2022-09-28T22:53:54.822Z,8.63
2022-09-28T22:56:57.911Z,9.33
2022-09-28T23:00:02.095Z,8.80
2022-09-28T23:03:06.698Z,9.33
2022-09-28T23:06:11.825Z,9.40
2022-09-28T23:09:15.313Z,10.07
2022-09-28T23:12:18.355Z,10.87
2022-09-28T23:15:21.559Z,9.37
2022-09-28T23:18:27.761Z,8.93
2022-09-28T23:21:31.481Z,9.10
2022-09-28T23:24:34.452Z,10.13
2022-09-28T23:27:37.615Z,9.30
2022-09-28T23:30:40.987Z,9.73
2022-09-28T23:33:45.680Z,9.17
2022-09-28T23:36:48.724Z,8.17
2022-09-28T23:39:51.920Z,9.23
2022-09-28T23:42:54.897Z,7.87
2022-09-28T23:45:57.828Z,9.00
2022-09-28T23:49:02.083Z,8.53
2022-09-28T23:52:05.262Z,8.10
2022-09-28T23:55:09.231Z,12.23
2022-09-28T23:58:12.735Z,8.70
